UNEE/KEJ METAR and TAF weather

Enter ICAO airport designator
Station Type Date Time Source
UNEE METAR 2021/08/04 17:30 UTC NOAA

UNEE 041730Z 31002MPS 9000 FEW009 16/14 Q1006 R23/CLRD60 NOSIG RMK QFE732


Station Type Date Time Source
UNEE Decoded METAR 2021/08/04 17:30 UTC NOAA

Kemerovo, Russia (UNEE) 55-19-48N 086-04-48E
Aug 04, 2021 - 01:30 PM EDT / 2021.08.04 1730 UTC
Wind: from the NW (310 degrees) at 4 MPH (4 KT):0
Visibility: 5 mile(s):0
Sky conditions: mostly clear
Temperature: 60 F (16 C)
Dew Point: 57 F (14 C)
Relative Humidity: 87%
Pressure (altimeter): 29.71 in. Hg (1006 hPa)
ob: UNEE 041730Z 31002MPS 9000 FEW009 16/14 Q1006 R23/CLRD60 NOSIG RMK QFE732
cycle: 17

Station Type Date Time Source
UNEE TAF 2021/08/04 18:21 UTC NOAA

TAF UNEE 041700Z 0418/0518 27003G08MPS 0900 FG BKN016CB
TEMPO 0418/0502 0150 -TSRA FG BKN001 BKN016CB
FM050200 24003G08MPS 8000 -SHRA BKN030CB
TEMPO 0502/0515 -TSRA BKN016CB

Example: see airport list